CYQT

Thunder Bay Airport

Thunder Bay, , Canada
TAF CYQT 210738Z 2108/2120 VRB03KT P6SM SKC BECMG 2112/2114 10010KT RMK NXT FCST BY 211400Z
Issued Valid From Valid To
Jun-21 @ 07:38 UTC
(2 hours ago)
Jun-21 @ 08:00 UTC
(2 hours ago)
Jun-21 @ 20:00 UTC
(in 10 hours)
Jun-21 @ 08:00 to Jun-21 @ 12:00
TAF CYQT 210738Z 2108/2120 VRB03KT P6SM SKC
Wind Visibility Clouds
Variable at 3 knots Greater than 6 miles
  • Clear skies
Becoming Jun-21 @ 12:00 to Jun-21 @ 20:00
BECMG 2112/2114 10010KT RMK NXT FCST BY 211400Z
Wind Visibility Clouds
100° at 10 knots Greater than 6 miles
  • Clear skies
TAF CYQT 210738Z 2108/2120 VRB03KT P6SM SKC BECMG 2112/2114 10010KT RMK NXT FCST BY 211400Z
Issued Jun-21 @ 07:38 UTC
(2 hours ago)
Valid From Jun-21 @ 08:00 UTC
(2 hours ago)
Valid To Jun-21 @ 20:00 UTC
(in 10 hours)
Jun-21 @ 08:00 - Jun-21 @ 12:00
Wind Visibility
Variable at 3 knots Greater than 6 miles
Clouds
  • Clear skies
Becoming Jun-21 @ 12:00 - Jun-21 @ 20:00
Wind Visibility
100° at 10 knots Greater than 6 miles
Clouds
  • Clear skies